createdAt,value
2023-04-11T00:00:42.355Z,100088.38
2023-04-11T00:05:43.506Z,100084.72
2023-04-11T00:10:45.653Z,100081.47
2023-04-11T00:15:47.953Z,100072.06
2023-04-11T00:20:48.546Z,100054.78
2023-04-11T00:25:49.130Z,100040.16
2023-04-11T00:30:51.126Z,100039.44
2023-04-11T00:35:52.783Z,100027.13
2023-04-11T00:40:53.431Z,100014.19
2023-04-11T00:45:55.792Z,100007.28
2023-04-11T00:50:56.722Z,99990.69
2023-04-11T00:55:57.384Z,99983.72
2023-04-11T01:00:59.446Z,99980.03
2023-04-11T01:06:00.315Z,99966.94
2023-04-11T01:11:01.669Z,99965.00
2023-04-11T01:16:05.109Z,99968.59
2023-04-11T01:21:06.428Z,99955.38
2023-04-11T01:26:08.489Z,99975.50
2023-04-11T01:31:09.224Z,99978.16
2023-04-11T01:36:10.447Z,99979.19
2023-04-11T01:41:13.025Z,99982.66
2023-04-11T01:46:14.604Z,99975.78
2023-04-11T01:51:15.417Z,99968.06
2023-04-11T01:56:19.537Z,99949.03
2023-04-11T02:01:21.671Z,99912.44
2023-04-11T02:06:22.406Z,99910.91
2023-04-11T02:11:24.305Z,99896.84
2023-04-11T02:16:25.866Z,99882.13
2023-04-11T02:21:26.719Z,99863.91
2023-04-11T02:26:28.811Z,99845.84
2023-04-11T02:31:29.979Z,99829.44
2023-04-11T02:36:30.711Z,99812.56
2023-04-11T02:41:32.727Z,99809.72
2023-04-11T02:46:34.436Z,99804.34
2023-04-11T02:51:36.106Z,99806.09
2023-04-11T02:56:39.117Z,99796.31
2023-04-11T03:01:40.191Z,99796.19
2023-04-11T03:06:41.159Z,99795.47
2023-04-11T03:11:43.982Z,99790.16
2023-04-11T03:16:47.409Z,99792.75
2023-04-11T03:21:48.022Z,99782.31
2023-04-11T03:26:50.990Z,99778.19
2023-04-11T03:31:52.796Z,99771.88
2023-04-11T03:36:54.079Z,99775.56
2023-04-11T03:41:56.223Z,99763.34
2023-04-11T03:46:57.941Z,99764.41
2023-04-11T03:52:05.316Z,99764.47
2023-04-11T03:57:07.377Z,99762.66
2023-04-11T04:02:09.779Z,99742.66
2023-04-11T04:07:18.068Z,99744.69
2023-04-11T04:12:20.688Z,99753.53
2023-04-11T04:17:38.089Z,99750.44
2023-04-11T04:22:47.438Z,99737.03
2023-04-11T04:27:53.977Z,99731.72
2023-04-11T04:32:58.957Z,99743.91
2023-04-11T04:38:06.118Z,99741.53
2023-04-11T04:43:23.409Z,99743.75
2023-04-11T04:48:46.890Z,99752.94
2023-04-11T04:53:47.845Z,99755.09
2023-04-11T04:58:50.634Z,99760.41
2023-04-11T05:04:00.170Z,99749.00
2023-04-11T05:09:16.193Z,99758.94
2023-04-11T05:14:18.556Z,99749.69
2023-04-11T05:19:19.266Z,99750.13
2023-04-11T05:24:23.284Z,99741.78
2023-04-11T05:29:25.885Z,99729.63
2023-04-11T05:34:26.689Z,99729.81
2023-04-11T05:39:27.302Z,99722.59
2023-04-11T05:44:31.296Z,99725.16
2023-04-11T05:49:31.881Z,99725.03
2023-04-11T05:54:34.468Z,99709.44
2023-04-11T05:59:37.780Z,99704.78
2023-04-11T06:04:38.617Z,99710.25
2023-04-11T06:09:42.138Z,99704.91
2023-04-11T06:14:44.098Z,99701.28
2023-04-11T06:19:44.821Z,99706.47
2023-04-11T06:24:46.103Z,99714.53
2023-04-11T06:29:48.829Z,99718.56
2023-04-11T06:34:49.481Z,99714.97
2023-04-11T06:39:51.074Z,99724.59
2023-04-11T06:44:54.097Z,99724.50
2023-04-11T06:49:55.544Z,99733.16
2023-04-11T06:54:57.565Z,99740.03
2023-04-11T06:59:59.485Z,99770.34
2023-04-11T07:05:00.107Z,99770.22
2023-04-11T07:10:00.780Z,99772.66
2023-04-11T07:15:03.805Z,99783.09
2023-04-11T07:20:08.604Z,99783.50
2023-04-11T07:25:10.425Z,99788.97
2023-04-11T07:30:16.554Z,99790.00
2023-04-11T07:35:18.275Z,99784.09
2023-04-11T07:40:20.834Z,99788.34
2023-04-11T07:45:22.851Z,99790.94
2023-04-11T07:50:23.595Z,99801.34
2023-04-11T07:55:24.192Z,99795.91
2023-04-11T08:00:26.353Z,99793.13
2023-04-11T08:05:27.655Z,99802.19
2023-04-11T08:10:28.283Z,99789.63
2023-04-11T08:15:30.329Z,99787.00
2023-04-11T08:20:30.894Z,99778.78
2023-04-11T08:25:32.412Z,99775.97
2023-04-11T08:30:34.442Z,99773.84
2023-04-11T08:35:35.259Z,99776.66
2023-04-11T08:40:36.315Z,99769.94
2023-04-11T08:45:38.192Z,99770.47
2023-04-11T08:50:40.437Z,99779.91
2023-04-11T08:55:47.410Z,99791.41
2023-04-11T09:00:49.531Z,99800.44
2023-04-11T09:05:50.261Z,99808.41
2023-04-11T09:10:50.813Z,99813.53
2023-04-11T09:16:07.209Z,99817.78
2023-04-11T09:21:09.463Z,99792.53
2023-04-11T09:26:11.474Z,99804.34
2023-04-11T09:31:14.002Z,99791.22
2023-04-11T09:36:23.044Z,99787.94
2023-04-11T09:41:34.436Z,99772.63
2023-04-11T09:46:37.446Z,99756.44
2023-04-11T09:51:38.368Z,99753.63
2023-04-11T09:56:38.966Z,99746.69
2023-04-11T10:01:42.042Z,99737.91
2023-04-11T10:06:50.935Z,99747.91
2023-04-11T10:11:51.690Z,99746.94
2023-04-11T10:17:20.662Z,99738.19
2023-04-11T10:23:10.086Z,99744.56
2023-04-11T10:28:31.306Z,99741.38
2023-04-11T10:33:34.625Z,99737.00
2023-04-11T10:38:49.478Z,99725.38
2023-04-11T10:43:51.090Z,99725.50
2023-04-11T10:49:00.797Z,99718.50
2023-04-11T10:54:02.921Z,99723.66
2023-04-11T10:59:03.662Z,99730.41
2023-04-11T11:04:06.255Z,99861.53
2023-04-11T11:09:23.148Z,99859.06
2023-04-11T11:14:30.046Z,99866.63
2023-04-11T11:19:32.554Z,99815.56
2023-04-11T11:24:33.255Z,99816.31
2023-04-11T11:29:35.951Z,99811.25
2023-04-11T11:34:37.855Z,99807.53
2023-04-11T11:39:38.626Z,99845.16
2023-04-11T11:44:39.304Z,99898.09
2023-04-11T11:49:55.378Z,99918.31
2023-04-11T11:54:56.364Z,99915.38
2023-04-11T11:59:58.130Z,99913.16
2023-04-11T12:05:01.505Z,99907.38
2023-04-11T12:10:02.974Z,99896.63
2023-04-11T12:15:04.505Z,99899.81
2023-04-11T12:20:07.944Z,99904.84
2023-04-11T12:25:11.197Z,99908.00
2023-04-11T12:30:15.163Z,99912.66
2023-04-11T12:35:17.283Z,99916.50
2023-04-11T12:40:18.099Z,99913.16
2023-04-11T12:45:18.781Z,99898.38
2023-04-11T12:50:22.992Z,99891.09
2023-04-11T12:55:23.754Z,99893.34
2023-04-11T13:00:24.619Z,99888.72
2023-04-11T13:05:27.143Z,99887.22
2023-04-11T13:10:27.746Z,99888.00
2023-04-11T13:15:28.564Z,99873.78
2023-04-11T13:20:30.615Z,99866.50
2023-04-11T13:25:31.227Z,99861.03
2023-04-11T13:30:34.256Z,99865.16
2023-04-11T13:35:36.301Z,99869.69
2023-04-11T13:40:38.190Z,99863.00
2023-04-11T13:45:38.856Z,99859.31
2023-04-11T13:50:40.796Z,99866.44
2023-04-11T13:55:41.412Z,99875.19
2023-04-11T14:00:42.054Z,99864.94
2023-04-11T14:05:44.005Z,99859.56
2023-04-11T14:10:44.604Z,99863.63
2023-04-11T14:15:47.657Z,99870.88
2023-04-11T14:20:51.587Z,99856.47
2023-04-11T14:25:53.289Z,99886.41
2023-04-11T14:30:54.146Z,99868.38
2023-04-11T14:35:56.439Z,99879.44
2023-04-11T14:40:57.149Z,99904.94
2023-04-11T14:45:58.297Z,99881.56
2023-04-11T14:51:03.547Z,99894.53
2023-04-11T14:56:05.684Z,99912.22
2023-04-11T15:01:07.489Z,99964.00
2023-04-11T15:06:12.136Z,99976.59
2023-04-11T15:11:12.742Z,99969.56
2023-04-11T15:16:13.378Z,99968.84
2023-04-11T15:21:15.647Z,99987.38
2023-04-11T15:26:16.576Z,99990.59
2023-04-11T15:31:26.231Z,99979.72
2023-04-11T15:36:28.614Z,99944.69
2023-04-11T15:41:29.256Z,99919.06
2023-04-11T15:46:30.152Z,99939.72
2023-04-11T15:51:32.376Z,99933.91
2023-04-11T15:56:34.177Z,99937.03
2023-04-11T16:01:36.315Z,99934.19
2023-04-11T16:06:38.364Z,99935.03
2023-04-11T16:11:40.000Z,99941.06
2023-04-11T16:16:40.890Z,99961.41
2023-04-11T16:21:43.044Z,99958.00
2023-04-11T16:26:44.430Z,99946.84
2023-04-11T16:31:45.139Z,99919.94
2023-04-11T16:36:47.140Z,99937.66
2023-04-11T16:41:47.877Z,99953.06
2023-04-11T16:46:48.458Z,99960.63
2023-04-11T16:51:50.511Z,99956.47
2023-04-11T16:56:51.215Z,99956.94
2023-04-11T17:01:51.980Z,99959.41
2023-04-11T17:06:54.811Z,99941.75
2023-04-11T17:11:55.543Z,99945.00
2023-04-11T17:16:57.969Z,99954.75
2023-04-11T17:22:00.117Z,99958.78
2023-04-11T17:27:00.822Z,99960.97
2023-04-11T17:32:02.125Z,99961.34
2023-04-11T17:37:04.067Z,99964.84
2023-04-11T17:42:05.167Z,99984.44
2023-04-11T17:47:05.907Z,99978.72
2023-04-11T17:52:07.902Z,99989.59
2023-04-11T17:57:08.712Z,99988.06
2023-04-11T18:02:09.557Z,99996.09
2023-04-11T18:07:11.612Z,100001.44
2023-04-11T18:12:12.226Z,100005.09
2023-04-11T18:17:12.856Z,100015.84
2023-04-11T18:22:14.830Z,100027.25
2023-04-11T18:27:16.321Z,100036.16
2023-04-11T18:32:16.949Z,100048.88
2023-04-11T18:37:18.997Z,100086.03
2023-04-11T18:42:19.582Z,100107.50
2023-04-11T18:47:20.376Z,100123.91
2023-04-11T18:52:22.554Z,100138.66
2023-04-11T18:57:26.021Z,100155.97
2023-04-11T19:02:27.828Z,100204.44
2023-04-11T19:07:31.454Z,100200.63
2023-04-11T19:12:33.302Z,100193.06
2023-04-11T19:17:34.956Z,100188.91
2023-04-11T19:22:39.793Z,100189.00
2023-04-11T19:27:42.497Z,100178.63
2023-04-11T19:32:45.957Z,100176.09
2023-04-11T19:37:48.059Z,100159.69
2023-04-11T19:42:48.836Z,100158.03
2023-04-11T19:47:49.524Z,100162.50
2023-04-11T19:52:56.738Z,100168.59
2023-04-11T19:57:57.426Z,100162.66
2023-04-11T20:02:58.201Z,100154.91
2023-04-11T20:08:00.271Z,100161.16
2023-04-11T20:13:01.961Z,100161.97
2023-04-11T20:18:02.847Z,100150.06
2023-04-11T20:23:05.984Z,100151.72
2023-04-11T20:28:06.576Z,100139.69
2023-04-11T20:33:07.554Z,100139.72
2023-04-11T20:38:09.645Z,100134.63
2023-04-11T20:43:10.433Z,100133.75
2023-04-11T20:48:12.873Z,100137.19
2023-04-11T20:53:15.127Z,100138.06
2023-04-11T20:58:18.637Z,100140.63
2023-04-11T21:03:19.482Z,100138.06
2023-04-11T21:08:21.616Z,100130.34
2023-04-11T21:13:22.197Z,100134.69
2023-04-11T21:18:22.750Z,100141.59
2023-04-11T21:23:24.787Z,100133.00
2023-04-11T21:28:25.389Z,100131.28
2023-04-11T21:33:26.030Z,100141.63
2023-04-11T21:38:28.159Z,100151.97
2023-04-11T21:43:29.063Z,100152.00
2023-04-11T21:48:30.202Z,100161.47
2023-04-11T21:53:32.109Z,100159.72
2023-04-11T21:58:34.480Z,100160.59
2023-04-11T22:03:35.735Z,100154.53
2023-04-11T22:08:39.137Z,100158.00
2023-04-11T22:13:39.774Z,100168.28
2023-04-11T22:18:47.191Z,100166.59
2023-04-11T22:23:54.307Z,100170.00
2023-04-11T22:28:55.295Z,100173.44
2023-04-11T22:33:56.618Z,100173.44
2023-04-11T22:39:00.865Z,100175.13
2023-04-11T22:44:01.884Z,100174.28
2023-04-11T22:49:02.508Z,100166.53
2023-04-11T22:54:06.780Z,100172.53
2023-04-11T22:59:07.394Z,100168.22
2023-04-11T23:04:08.362Z,100167.34
2023-04-11T23:09:10.896Z,100160.47
2023-04-11T23:14:12.190Z,100154.44
2023-04-11T23:19:13.023Z,100152.66
2023-04-11T23:24:15.909Z,100150.06
2023-04-11T23:29:16.594Z,100138.03
2023-04-11T23:34:17.168Z,100136.28
2023-04-11T23:39:20.018Z,100126.78
2023-04-11T23:44:20.624Z,100122.50
2023-04-11T23:49:21.206Z,100119.84
2023-04-11T23:54:23.144Z,100114.72
2023-04-11T23:59:24.057Z,100107.00
